Time;durP1;ratioP1;P1;durP2;ratioP2;P2;SDS_P1;SDS_P2;PMS_P1;PMS_P2;Temp;Humidity;BMP_temperature;BMP_pressure;BME280_temperature;BME280_humidity;BME280_pressure;Samples;Min_cycle;Max_cycle;Signal;HPM_P1;HPM_P2
2021/01/23 00:04:23;;;;;;;;;118.33;107.00;;;;;;;;12075245;29;8895;-48
2021/01/23 00:10:24;;;;;;;;;119.33;107.33;;;;;;;;12082611;29;8949;-49
2021/01/23 00:16:26;;;;;;;;;122.00;109.00;;;;;;;;12080942;29;9006;-48
2021/01/23 00:22:27;;;;;;;;;121.67;107.33;;;;;;;;12074199;29;8851;-52
2021/01/23 00:28:29;;;;;;;;;112.00;102.33;;;;;;;;12082589;29;8891;-48
2021/01/23 00:34:30;;;;;;;;;123.00;109.33;;;;;;;;12080925;29;8848;-51
2021/01/23 00:40:31;;;;;;;;;116.67;105.67;;;;;;;;12074636;29;8972;-46
2021/01/23 00:46:33;;;;;;;;;119.00;105.33;;;;;;;;12079875;29;8889;-47
2021/01/23 00:52:36;;;;;;;;;123.67;109.33;;;;;;;;12077963;29;8899;-50
2021/01/23 00:58:39;;;;;;;;;122.67;108.67;;;;;;;;12082877;29;8878;-48
2021/01/23 01:04:41;;;;;;;;;132.50;118.50;;;;;;;;12074118;29;8881;-49
2021/01/23 01:10:45;;;;;;;;;132.33;122.00;;;;;;;;12076154;29;8870;-51
2021/01/23 01:16:48;;;;;;;;;131.33;117.00;;;;;;;;12075773;29;8879;-49
2021/01/23 01:22:50;;;;;;;;;131.25;115.75;;;;;;;;12079207;29;8859;-47
2021/01/23 01:28:51;;;;;;;;;125.33;112.67;;;;;;;;12074346;29;8851;-47
2021/01/23 01:34:53;;;;;;;;;117.00;104.67;;;;;;;;12077260;29;8935;-48
2021/01/23 01:40:55;;;;;;;;;128.33;117.67;;;;;;;;12073215;29;8880;-48
2021/01/23 01:47:00;;;;;;;;;117.33;106.67;;;;;;;;12073924;29;8879;-47
2021/01/23 01:53:02;;;;;;;;;114.67;109.00;;;;;;;;12077793;29;8932;-49
2021/01/23 01:59:03;;;;;;;;;121.67;103.67;;;;;;;;12074675;29;8887;-48
2021/01/23 02:05:07;;;;;;;;;118.00;105.00;;;;;;;;12072108;29;8875;-51
2021/01/23 02:11:37;;;;;;;;;119.67;105.67;;;;;;;;12077879;29;8890;-50
2021/01/23 02:17:50;;;;;;;;;111.00;94.00;;;;;;;;12070391;29;8887;-46
2021/01/23 02:23:53;;;;;;;;;124.67;103.67;;;;;;;;12076066;29;8851;-46
2021/01/23 02:30:12;;;;;;;;;114.33;100.67;;;;;;;;12079325;29;9014;-48
2021/01/23 02:36:15;;;;;;;;;106.00;84.33;;;;;;;;12069293;29;8859;-47
2021/01/23 02:42:16;;;;;;;;;103.67;86.67;;;;;;;;12051628;29;8855;-47
2021/01/23 02:48:18;;;;;;;;;111.00;92.67;;;;;;;;12058152;29;8848;-48
2021/01/23 02:54:44;;;;;;;;;104.00;87.00;;;;;;;;12072193;29;8885;-45
2021/01/23 03:00:48;;;;;;;;;104.33;87.00;;;;;;;;12073661;29;8904;-49
2021/01/23 03:06:50;;;;;;;;;100.00;77.67;;;;;;;;12081841;29;8925;-47
2021/01/23 03:12:51;;;;;;;;;97.00;73.33;;;;;;;;12082966;29;8913;-49
2021/01/23 03:18:53;;;;;;;;;97.67;73.67;;;;;;;;12081041;29;8851;-51
2021/01/23 03:24:54;;;;;;;;;99.67;84.00;;;;;;;;12083830;29;8892;-47
2021/01/23 03:30:55;;;;;;;;;94.00;75.67;;;;;;;;12077648;29;8971;-50
2021/01/23 03:36:57;;;;;;;;;89.33;71.33;;;;;;;;12081495;29;8981;-47
2021/01/23 03:43:00;;;;;;;;;84.67;66.33;;;;;;;;12079757;29;8895;-48
2021/01/23 03:49:01;;;;;;;;;94.33;73.00;;;;;;;;12082072;29;8879;-46
2021/01/23 03:55:05;;;;;;;;;82.50;66.50;;;;;;;;12083291;29;8863;-50
2021/01/23 04:01:07;;;;;;;;;86.00;66.33;;;;;;;;12085215;29;9637;-50
2021/01/23 04:07:09;;;;;;;;;88.67;71.33;;;;;;;;12077807;29;8962;-48
2021/01/23 04:13:10;;;;;;;;;91.67;75.00;;;;;;;;12083216;29;8856;-46
2021/01/23 04:19:11;;;;;;;;;103.33;77.67;;;;;;;;12074562;29;8872;-48
2021/01/23 04:25:14;;;;;;;;;99.67;81.00;;;;;;;;12081397;29;8849;-52
2021/01/23 04:31:15;;;;;;;;;94.00;73.67;;;;;;;;12076550;29;8860;-46
2021/01/23 04:37:17;;;;;;;;;93.67;71.67;;;;;;;;12055069;29;8881;-49
2021/01/23 04:43:18;;;;;;;;;86.67;70.00;;;;;;;;12063325;29;9309;-49
2021/01/23 04:49:20;;;;;;;;;87.67;71.33;;;;;;;;12073938;29;9053;-47
2021/01/23 04:55:21;;;;;;;;;95.33;73.33;;;;;;;;12074383;29;8862;-49
2021/01/23 05:01:23;;;;;;;;;96.67;74.33;;;;;;;;12080726;29;8886;-47
2021/01/23 05:07:35;;;;;;;;;82.50;67.00;;;;;;;;12076822;29;8864;-47
2021/01/23 05:13:37;;;;;;;;;83.33;66.33;;;;;;;;12082413;29;8839;-49
2021/01/23 05:19:42;;;;;;;;;80.25;61.50;;;;;;;;12073189;29;9677;-47
2021/01/23 05:25:48;;;;;;;;;86.75;68.00;;;;;;;;12076153;29;8903;-47
2021/01/23 05:32:16;;;;;;;;;87.00;66.75;;;;;;;;12075728;29;8942;-48
2021/01/23 05:38:34;;;;;;;;;81.50;65.25;;;;;;;;12078846;29;8884;-49
2021/01/23 05:44:35;;;;;;;;;90.67;66.00;;;;;;;;12072856;29;8872;-47
2021/01/23 05:50:37;;;;;;;;;78.33;64.33;;;;;;;;12072810;29;8871;-47
2021/01/23 05:56:41;;;;;;;;;85.75;66.75;;;;;;;;12078989;29;8855;-50
2021/01/23 06:02:44;;;;;;;;;86.50;65.50;;;;;;;;12070741;29;8884;-48
2021/01/23 06:08:47;;;;;;;;;90.67;72.67;;;;;;;;12078615;29;8878;-48
2021/01/23 06:14:48;;;;;;;;;89.67;69.00;;;;;;;;12072649;29;8894;-51
2021/01/23 06:20:52;;;;;;;;;97.67;74.00;;;;;;;;12077746;29;8884;-49
2021/01/23 06:26:53;;;;;;;;;91.75;71.00;;;;;;;;12072309;29;8871;-47
2021/01/23 06:32:55;;;;;;;;;94.67;74.67;;;;;;;;12074303;29;8953;-49
2021/01/23 06:39:09;;;;;;;;;84.75;66.25;;;;;;;;12084941;29;8870;-48
2021/01/23 06:45:13;;;;;;;;;88.33;69.33;;;;;;;;12084728;29;8871;-50
2021/01/23 06:51:20;;;;;;;;;105.33;87.33;;;;;;;;12086899;29;8856;-48
2021/01/23 06:57:22;;;;;;;;;97.00;77.33;;;;;;;;12079587;29;8864;-47
2021/01/23 07:03:26;;;;;;;;;94.00;78.00;;;;;;;;12080053;29;8882;-47
2021/01/23 07:10:05;;;;;;;;;97.67;78.67;;;;;;;;12083006;29;9909;-47
2021/01/23 07:16:11;;;;;;;;;103.00;85.33;;;;;;;;12038768;29;8899;-51
2021/01/23 07:22:12;;;;;;;;;101.00;85.33;;;;;;;;12085095;29;8905;-49
2021/01/23 07:28:19;;;;;;;;;95.33;81.00;;;;;;;;12080114;29;9170;-50
2021/01/23 07:34:20;;;;;;;;;103.67;84.67;;;;;;;;12079355;29;8868;-49
2021/01/23 07:40:26;;;;;;;;;99.67;86.00;;;;;;;;12079833;29;8872;-48
2021/01/23 07:46:35;;;;;;;;;95.50;80.75;;;;;;;;12076879;29;8930;-47
2021/01/23 07:52:38;;;;;;;;;102.00;89.00;;;;;;;;12083045;29;8868;-51
2021/01/23 07:58:48;;;;;;;;;95.67;77.33;;;;;;;;12079155;29;8935;-53
2021/01/23 08:04:55;;;;;;;;;95.25;76.00;;;;;;;;12081213;29;8902;-51
2021/01/23 08:10:57;;;;;;;;;86.50;69.00;;;;;;;;12082494;29;8876;-52
2021/01/23 08:16:59;;;;;;;;;77.50;60.75;;;;;;;;12075070;29;8896;-50
2021/01/23 08:23:09;;;;;;;;;73.00;59.25;;;;;;;;12080821;29;8872;-51
2021/01/23 08:29:18;;;;;;;;;78.75;61.75;;;;;;;;12075619;29;8879;-53
2021/01/23 08:35:20;;;;;;;;;85.50;68.00;;;;;;;;12070326;29;8890;-53
2021/01/23 08:41:23;;;;;;;;;89.25;71.50;;;;;;;;12080055;29;8872;-54
2021/01/23 08:47:24;;;;;;;;;84.50;67.25;;;;;;;;12075756;29;9648;-52
2021/01/23 08:53:26;;;;;;;;;69.50;57.25;;;;;;;;12085212;29;8870;-51
2021/01/23 08:59:27;;;;;;;;;72.00;57.25;;;;;;;;12078069;29;8868;-50
2021/01/23 09:05:29;;;;;;;;;64.50;55.00;;;;;;;;12067269;29;9519;-51
2021/01/23 09:11:31;;;;;;;;;70.50;56.00;;;;;;;;12078757;29;8856;-53
2021/01/23 09:17:33;;;;;;;;;63.75;52.25;;;;;;;;12076951;29;8867;-49
2021/01/23 09:23:35;;;;;;;;;61.50;51.00;;;;;;;;12081378;29;8863;-52
2021/01/23 09:29:38;;;;;;;;;66.50;52.75;;;;;;;;12077067;29;8879;-51
2021/01/23 09:35:40;;;;;;;;;65.50;54.00;;;;;;;;12078780;29;8884;-50
2021/01/23 09:41:41;;;;;;;;;47.75;42.50;;;;;;;;12075105;29;8851;-50
2021/01/23 09:47:42;;;;;;;;;40.00;36.25;;;;;;;;12077184;29;8933;-48
2021/01/23 09:53:44;;;;;;;;;40.50;37.00;;;;;;;;12075226;29;8876;-49
2021/01/23 09:59:47;;;;;;;;;43.00;37.75;;;;;;;;12073652;29;8876;-49
2021/01/23 10:05:49;;;;;;;;;46.75;41.25;;;;;;;;12077931;29;8931;-50
2021/01/23 10:11:51;;;;;;;;;41.00;38.50;;;;;;;;12071050;29;8867;-48
2021/01/23 10:17:53;;;;;;;;;41.50;39.00;;;;;;;;12074973;29;8856;-52
2021/01/23 10:23:55;;;;;;;;;48.00;39.75;;;;;;;;12073579;29;8902;-51
2021/01/23 10:29:56;;;;;;;;;42.50;37.25;;;;;;;;12078050;29;8880;-51
2021/01/23 10:35:57;;;;;;;;;46.50;39.75;;;;;;;;12076073;29;8879;-48
2021/01/23 10:41:59;;;;;;;;;44.75;40.00;;;;;;;;12071367;29;8897;-52
2021/01/23 10:48:00;;;;;;;;;41.75;37.50;;;;;;;;12077355;29;9795;-49
2021/01/23 10:54:02;;;;;;;;;37.75;33.75;;;;;;;;12073482;29;8876;-52
2021/01/23 11:00:06;;;;;;;;;32.00;30.50;;;;;;;;12073837;29;8895;-51
2021/01/23 11:06:08;;;;;;;;;31.50;29.75;;;;;;;;12072376;29;9445;-49
2021/01/23 11:12:10;;;;;;;;;44.75;38.25;;;;;;;;12070654;29;8942;-51
2021/01/23 11:18:11;;;;;;;;;32.00;30.50;;;;;;;;12077477;29;8958;-50
2021/01/23 11:24:13;;;;;;;;;40.50;37.50;;;;;;;;12080425;29;9653;-50
2021/01/23 11:30:15;;;;;;;;;37.75;35.00;;;;;;;;12082970;29;8887;-53
2021/01/23 11:36:18;;;;;;;;;47.25;39.50;;;;;;;;12078203;29;8956;-51
2021/01/23 11:42:20;;;;;;;;;41.00;36.50;;;;;;;;12085154;29;8868;-52
2021/01/23 11:48:21;;;;;;;;;32.25;32.25;;;;;;;;12076785;29;8867;-49
2021/01/23 11:54:23;;;;;;;;;35.67;34.00;;;;;;;;12079260;29;8935;-51
2021/01/23 12:00:24;;;;;;;;;45.75;37.50;;;;;;;;12087027;29;8868;-46
2021/01/23 12:06:26;;;;;;;;;41.25;37.25;;;;;;;;12076212;29;9756;-50
2021/01/23 12:12:27;;;;;;;;;38.75;36.25;;;;;;;;12076331;29;8879;-52
2021/01/23 12:18:28;;;;;;;;;40.50;38.25;;;;;;;;12083914;29;8881;-52
2021/01/23 12:24:32;;;;;;;;;45.50;37.25;;;;;;;;12077422;29;8849;-51
2021/01/23 12:30:33;;;;;;;;;43.00;40.50;;;;;;;;12083846;29;8884;-50
2021/01/23 12:36:34;;;;;;;;;42.50;37.25;;;;;;;;12075068;29;8860;-48
2021/01/23 12:42:36;;;;;;;;;44.25;40.50;;;;;;;;12075981;29;8969;-53
2021/01/23 12:48:38;;;;;;;;;61.00;48.50;;;;;;;;12079761;29;8866;-49
2021/01/23 12:54:40;;;;;;;;;54.50;44.50;;;;;;;;12078688;29;8873;-49
2021/01/23 13:00:43;;;;;;;;;62.25;48.25;;;;;;;;12080879;29;8880;-48
2021/01/23 13:06:44;;;;;;;;;62.75;49.25;;;;;;;;12074216;29;8875;-52
2021/01/23 13:12:50;;;;;;;;;62.00;51.25;;;;;;;;12076851;29;8903;-51
2021/01/23 13:18:52;;;;;;;;;64.75;50.75;;;;;;;;12078159;29;9689;-49
2021/01/23 13:24:53;;;;;;;;;45.25;38.50;;;;;;;;12080815;29;8959;-50
2021/01/23 13:30:54;;;;;;;;;62.75;50.75;;;;;;;;12074288;29;8860;-51
2021/01/23 13:36:56;;;;;;;;;65.00;50.25;;;;;;;;12077703;29;8859;-52
2021/01/23 13:42:57;;;;;;;;;58.00;47.50;;;;;;;;12074600;29;8999;-52
2021/01/23 13:48:59;;;;;;;;;61.25;49.00;;;;;;;;12072635;29;8888;-49
2021/01/23 13:55:01;;;;;;;;;58.25;43.25;;;;;;;;12072267;29;8894;-54
2021/01/23 14:01:05;;;;;;;;;58.75;48.75;;;;;;;;12080364;29;9664;-51
2021/01/23 14:07:06;;;;;;;;;56.75;47.75;;;;;;;;12073274;29;8892;-49
2021/01/23 14:13:08;;;;;;;;;56.25;45.00;;;;;;;;12077589;29;8848;-51
2021/01/23 14:19:09;;;;;;;;;47.75;40.75;;;;;;;;12072831;29;9586;-53
2021/01/23 14:25:11;;;;;;;;;48.50;41.50;;;;;;;;12078654;29;8871;-50
2021/01/23 14:31:13;;;;;;;;;54.75;44.25;;;;;;;;12072826;29;8876;-51
2021/01/23 14:37:15;;;;;;;;;54.25;45.25;;;;;;;;12074177;29;8934;-52
2021/01/23 14:43:17;;;;;;;;;62.00;51.00;;;;;;;;12070865;29;9770;-50
2021/01/23 14:49:18;;;;;;;;;60.75;47.00;;;;;;;;12079499;29;8886;-50
2021/01/23 14:55:19;;;;;;;;;57.75;49.75;;;;;;;;12077322;29;8903;-49
2021/01/23 15:01:21;;;;;;;;;63.25;54.00;;;;;;;;12082653;29;9505;-53
2021/01/23 15:07:23;;;;;;;;;67.50;55.25;;;;;;;;12082430;29;8928;-50
2021/01/23 15:13:25;;;;;;;;;82.00;63.75;;;;;;;;12077876;29;8866;-52
2021/01/23 15:19:27;;;;;;;;;82.75;65.00;;;;;;;;12087514;29;8878;-50
2021/01/23 15:25:29;;;;;;;;;70.75;56.00;;;;;;;;12081637;29;8955;-51
2021/01/23 15:31:30;;;;;;;;;83.00;67.00;;;;;;;;12082276;29;8876;-49
2021/01/23 15:37:38;;;;;;;;;93.25;74.00;;;;;;;;12081538;29;8854;-55
2021/01/23 15:43:39;;;;;;;;;95.00;79.75;;;;;;;;12077878;29;8884;-55
2021/01/23 15:49:41;;;;;;;;;93.50;79.50;;;;;;;;12085268;29;9002;-54
2021/01/23 15:55:43;;;;;;;;;97.50;79.25;;;;;;;;12078441;29;8981;-51
2021/01/23 16:01:44;;;;;;;;;117.67;106.33;;;;;;;;12082496;29;8973;-52
2021/01/23 16:07:46;;;;;;;;;103.00;92.50;;;;;;;;12076895;29;9066;-51
2021/01/23 16:13:48;;;;;;;;;94.00;77.75;;;;;;;;12082830;29;8859;-50
2021/01/23 16:19:51;;;;;;;;;97.75;83.25;;;;;;;;12073193;29;8887;-54
2021/01/23 16:25:52;;;;;;;;;96.25;81.75;;;;;;;;12075037;29;8855;-50
2021/01/23 16:31:54;;;;;;;;;92.75;78.25;;;;;;;;12086013;29;8887;-49
2021/01/23 16:37:55;;;;;;;;;101.00;87.33;;;;;;;;12079077;29;8868;-51
2021/01/23 16:43:57;;;;;;;;;99.33;84.00;;;;;;;;12074640;29;8860;-50
2021/01/23 16:49:58;;;;;;;;;99.67;87.67;;;;;;;;12081217;29;9649;-52
2021/01/23 16:56:00;;;;;;;;;104.33;94.00;;;;;;;;12073001;29;8902;-51
2021/01/23 17:02:01;;;;;;;;;102.33;84.00;;;;;;;;12081279;29;8863;-49
2021/01/23 17:08:04;;;;;;;;;86.00;69.00;;;;;;;;12078632;29;8871;-51
2021/01/23 17:14:05;;;;;;;;;87.00;68.50;;;;;;;;12076006;29;8848;-50
2021/01/23 17:20:08;;;;;;;;;85.75;68.25;;;;;;;;12077478;29;8875;-51
2021/01/23 17:26:10;;;;;;;;;86.50;69.25;;;;;;;;12072830;29;8993;-48
2021/01/23 17:32:11;;;;;;;;;85.75;68.75;;;;;;;;12080193;29;8859;-48
2021/01/23 17:38:14;;;;;;;;;90.25;70.00;;;;;;;;12077378;29;8880;-51
2021/01/23 17:44:15;;;;;;;;;95.00;76.50;;;;;;;;12077259;29;9706;-52
2021/01/23 17:50:17;;;;;;;;;94.00;76.25;;;;;;;;12074933;29;8872;-53
2021/01/23 17:56:21;;;;;;;;;95.50;80.50;;;;;;;;12071484;29;8863;-51
2021/01/23 18:02:23;;;;;;;;;98.25;82.75;;;;;;;;12080705;29;8909;-51
2021/01/23 18:08:25;;;;;;;;;93.75;72.00;;;;;;;;12075967;29;9630;-50
2021/01/23 18:14:27;;;;;;;;;95.25;73.75;;;;;;;;12077464;29;8864;-51
2021/01/23 18:20:28;;;;;;;;;91.50;70.25;;;;;;;;12073830;29;8935;-50
2021/01/23 18:26:29;;;;;;;;;94.50;70.50;;;;;;;;12071064;29;8893;-49
2021/01/23 18:32:31;;;;;;;;;96.75;75.25;;;;;;;;12081735;29;8884;-53
2021/01/23 18:38:32;;;;;;;;;86.50;67.75;;;;;;;;12086134;29;8863;-53
2021/01/23 18:44:34;;;;;;;;;92.25;73.50;;;;;;;;12078896;29;8871;-52
2021/01/23 18:50:35;;;;;;;;;83.00;67.25;;;;;;;;12086843;29;8855;-49
2021/01/23 18:56:38;;;;;;;;;82.25;65.75;;;;;;;;12085152;29;8868;-48
2021/01/23 19:02:39;;;;;;;;;81.00;65.00;;;;;;;;12080211;29;8909;-51
2021/01/23 19:08:41;;;;;;;;;79.75;63.75;;;;;;;;12084847;29;8852;-50
2021/01/23 19:14:43;;;;;;;;;88.25;68.00;;;;;;;;12078177;29;8864;-51
2021/01/23 19:20:45;;;;;;;;;71.50;57.50;;;;;;;;12085390;29;8852;-48
2021/01/23 19:26:46;;;;;;;;;81.50;66.00;;;;;;;;12081608;29;8962;-50
2021/01/23 19:32:47;;;;;;;;;82.25;65.25;;;;;;;;12081234;29;8858;-48
2021/01/23 19:38:50;;;;;;;;;92.25;76.00;;;;;;;;12084256;29;8872;-49
2021/01/23 19:44:51;;;;;;;;;94.50;69.50;;;;;;;;12075649;29;8926;-50
2021/01/23 19:50:52;;;;;;;;;85.25;67.25;;;;;;;;12083883;29;8867;-50
2021/01/23 19:56:54;;;;;;;;;75.00;61.50;;;;;;;;12078453;29;8852;-48
2021/01/23 20:02:55;;;;;;;;;78.25;61.00;;;;;;;;12077423;29;8955;-49
2021/01/23 20:08:57;;;;;;;;;79.75;63.00;;;;;;;;12078372;29;9625;-53
2021/01/23 20:14:58;;;;;;;;;75.75;57.00;;;;;;;;12083080;29;8859;-54
2021/01/23 20:20:59;;;;;;;;;81.25;64.00;;;;;;;;12077623;29;8879;-52
2021/01/23 20:27:01;;;;;;;;;82.00;63.75;;;;;;;;12082081;29;8865;-51
2021/01/23 20:33:03;;;;;;;;;77.25;61.50;;;;;;;;12081775;29;8868;-53
2021/01/23 20:39:10;;;;;;;;;76.00;62.75;;;;;;;;12083838;29;8867;-49
2021/01/23 20:45:12;;;;;;;;;77.75;61.25;;;;;;;;12074548;29;8982;-47
2021/01/23 20:51:14;;;;;;;;;78.75;62.25;;;;;;;;12078795;29;8882;-49
2021/01/23 20:57:15;;;;;;;;;72.75;57.75;;;;;;;;12080550;29;8886;-49
2021/01/23 21:03:16;;;;;;;;;68.50;56.75;;;;;;;;12072838;29;8868;-50
2021/01/23 21:09:19;;;;;;;;;79.50;63.00;;;;;;;;12076476;29;8866;-48
2021/01/23 21:15:21;;;;;;;;;89.50;69.25;;;;;;;;12074798;29;8868;-52
2021/01/23 21:21:23;;;;;;;;;99.50;85.00;;;;;;;;12077151;29;8905;-50
2021/01/23 21:27:25;;;;;;;;;96.67;81.00;;;;;;;;12072788;29;8859;-50
2021/01/23 21:33:27;;;;;;;;;94.33;77.33;;;;;;;;12080086;29;8958;-50
2021/01/23 21:39:29;;;;;;;;;104.00;93.67;;;;;;;;12078347;29;8860;-51
2021/01/23 21:45:30;;;;;;;;;108.00;95.00;;;;;;;;12074198;29;8909;-52
2021/01/23 21:51:32;;;;;;;;;107.33;95.00;;;;;;;;12076492;29;8968;-48
2021/01/23 21:57:33;;;;;;;;;114.33;100.00;;;;;;;;12071252;29;9023;-48
2021/01/23 22:03:34;;;;;;;;;125.33;106.67;;;;;;;;12077928;29;8864;-48
2021/01/23 22:09:36;;;;;;;;;100.00;83.33;;;;;;;;12077893;29;8866;-48
2021/01/23 22:15:37;;;;;;;;;103.67;85.67;;;;;;;;12071814;29;8867;-50
2021/01/23 22:21:40;;;;;;;;;99.67;88.00;;;;;;;;12077124;29;9656;-48
2021/01/23 22:27:41;;;;;;;;;96.00;78.33;;;;;;;;12077996;29;8867;-53
2021/01/23 22:33:43;;;;;;;;;92.33;72.33;;;;;;;;12070060;29;8855;-51
2021/01/23 22:39:44;;;;;;;;;94.33;73.67;;;;;;;;12078915;29;8892;-48
2021/01/23 22:45:46;;;;;;;;;93.67;75.67;;;;;;;;12074839;29;8909;-51
2021/01/23 22:51:47;;;;;;;;;84.67;66.00;;;;;;;;12074261;29;8856;-50
2021/01/23 22:57:49;;;;;;;;;72.25;56.75;;;;;;;;12071466;29;8903;-52
2021/01/23 23:03:50;;;;;;;;;90.00;70.00;;;;;;;;12070660;29;8898;-51
2021/01/23 23:09:51;;;;;;;;;84.33;66.00;;;;;;;;12078053;29;8848;-48
2021/01/23 23:15:52;;;;;;;;;83.75;65.50;;;;;;;;12069782;29;9315;-49
2021/01/23 23:21:54;;;;;;;;;81.50;62.00;;;;;;;;12084081;29;8856;-50
2021/01/23 23:27:58;;;;;;;;;78.25;63.50;;;;;;;;12081407;29;8880;-50
2021/01/23 23:33:59;;;;;;;;;86.75;67.25;;;;;;;;12082091;29;8860;-52
2021/01/23 23:40:02;;;;;;;;;84.50;64.50;;;;;;;;12078401;29;8958;-50
2021/01/23 23:46:05;;;;;;;;;82.75;66.25;;;;;;;;12084846;29;8871;-49
2021/01/23 23:52:06;;;;;;;;;79.75;63.50;;;;;;;;12080811;29;9574;-48
2021/01/23 23:58:07;;;;;;;;;80.50;62.25;;;;;;;;12082501;29;9538;-48
